sensor_id;sensor_type;location;lat;lon;timestamp;P1;durP1;ratioP1;P2;durP2;ratioP2
78799;SDS011;68148;55.328;86.106;2023-06-26T00:00:30;37.60;;;21.65;;
78799;SDS011;68148;55.328;86.106;2023-06-26T00:02:56;51.92;;;26.80;;
78799;SDS011;68148;55.328;86.106;2023-06-26T00:05:22;28.67;;;14.10;;
78799;SDS011;68148;55.328;86.106;2023-06-26T00:07:48;29.08;;;13.68;;
78799;SDS011;68148;55.328;86.106;2023-06-26T00:10:14;27.80;;;13.88;;
78799;SDS011;68148;55.328;86.106;2023-06-26T00:12:40;31.52;;;15.85;;
78799;SDS011;68148;55.328;86.106;2023-06-26T00:15:06;31.63;;;16.60;;
78799;SDS011;68148;55.328;86.106;2023-06-26T00:17:32;32.90;;;15.98;;
78799;SDS011;68148;55.328;86.106;2023-06-26T00:19:59;36.55;;;15.48;;
78799;SDS011;68148;55.328;86.106;2023-06-26T00:22:25;31.13;;;13.13;;
78799;SDS011;68148;55.328;86.106;2023-06-26T00:24:51;19.60;;;10.57;;
78799;SDS011;68148;55.328;86.106;2023-06-26T00:27:17;16.45;;;7.47;;
78799;SDS011;68148;55.328;86.106;2023-06-26T00:29:43;15.05;;;7.03;;
78799;SDS011;68148;55.328;86.106;2023-06-26T00:32:08;11.18;;;6.13;;
78799;SDS011;68148;55.328;86.106;2023-06-26T00:34:34;12.00;;;5.55;;
78799;SDS011;68148;55.328;86.106;2023-06-26T00:37:00;10.15;;;5.28;;
78799;SDS011;68148;55.328;86.106;2023-06-26T00:39:25;9.93;;;5.13;;
78799;SDS011;68148;55.328;86.106;2023-06-26T00:41:51;14.73;;;5.05;;
78799;SDS011;68148;55.328;86.106;2023-06-26T00:44:17;7.15;;;4.25;;
78799;SDS011;68148;55.328;86.106;2023-06-26T00:46:43;12.98;;;4.18;;
78799;SDS011;68148;55.328;86.106;2023-06-26T00:49:08;11.77;;;5.75;;
78799;SDS011;68148;55.328;86.106;2023-06-26T00:51:35;7.55;;;4.28;;
78799;SDS011;68148;55.328;86.106;2023-06-26T00:54:01;15.55;;;5.07;;
78799;SDS011;68148;55.328;86.106;2023-06-26T00:56:27;12.95;;;5.38;;
78799;SDS011;68148;55.328;86.106;2023-06-26T00:58:56;17.80;;;5.55;;
78799;SDS011;68148;55.328;86.106;2023-06-26T01:01:22;10.13;;;4.75;;
78799;SDS011;68148;55.328;86.106;2023-06-26T01:03:48;16.30;;;5.63;;
78799;SDS011;68148;55.328;86.106;2023-06-26T01:06:15;10.55;;;5.38;;
78799;SDS011;68148;55.328;86.106;2023-06-26T01:08:41;9.73;;;5.13;;
78799;SDS011;68148;55.328;86.106;2023-06-26T01:11:08;10.20;;;4.93;;
78799;SDS011;68148;55.328;86.106;2023-06-26T01:13:34;10.77;;;5.13;;
78799;SDS011;68148;55.328;86.106;2023-06-26T01:16:01;11.52;;;5.45;;
78799;SDS011;68148;55.328;86.106;2023-06-26T01:18:31;9.73;;;5.18;;
78799;SDS011;68148;55.328;86.106;2023-06-26T01:20:58;9.32;;;4.80;;
78799;SDS011;68148;55.328;86.106;2023-06-26T01:29:01;9.70;;;5.20;;
78799;SDS011;68148;55.328;86.106;2023-06-26T01:31:29;9.77;;;4.60;;
78799;SDS011;68148;55.328;86.106;2023-06-26T01:33:57;16.05;;;4.40;;
78799;SDS011;68148;55.328;86.106;2023-06-26T01:36:24;7.82;;;4.43;;
78799;SDS011;68148;55.328;86.106;2023-06-26T01:38:50;8.18;;;3.72;;
78799;SDS011;68148;55.328;86.106;2023-06-26T01:41:17;6.50;;;4.22;;
78799;SDS011;68148;55.328;86.106;2023-06-26T01:46:30;16.33;;;5.00;;
78799;SDS011;68148;55.328;86.106;2023-06-26T01:51:44;10.68;;;5.18;;
78799;SDS011;68148;55.328;86.106;2023-06-26T01:54:17;11.45;;;4.80;;
78799;SDS011;68148;55.328;86.106;2023-06-26T01:56:44;9.73;;;5.88;;
78799;SDS011;68148;55.328;86.106;2023-06-26T01:59:13;11.25;;;4.47;;
78799;SDS011;68148;55.328;86.106;2023-06-26T02:01:39;9.27;;;4.45;;
78799;SDS011;68148;55.328;86.106;2023-06-26T02:04:05;13.40;;;4.90;;
78799;SDS011;68148;55.328;86.106;2023-06-26T02:06:31;16.20;;;4.80;;
78799;SDS011;68148;55.328;86.106;2023-06-26T02:08:57;10.85;;;3.92;;
78799;SDS011;68148;55.328;86.106;2023-06-26T02:11:23;8.70;;;4.80;;
78799;SDS011;68148;55.328;86.106;2023-06-26T02:13:49;16.83;;;4.38;;
78799;SDS011;68148;55.328;86.106;2023-06-26T02:16:14;24.00;;;4.22;;
78799;SDS011;68148;55.328;86.106;2023-06-26T02:18:40;11.13;;;3.15;;
78799;SDS011;68148;55.328;86.106;2023-06-26T02:21:08;7.15;;;3.10;;
78799;SDS011;68148;55.328;86.106;2023-06-26T02:23:34;7.55;;;3.53;;
78799;SDS011;68148;55.328;86.106;2023-06-26T02:26:00;9.65;;;3.92;;
78799;SDS011;68148;55.328;86.106;2023-06-26T02:28:26;8.32;;;3.50;;
78799;SDS011;68148;55.328;86.106;2023-06-26T02:30:52;7.72;;;3.60;;
78799;SDS011;68148;55.328;86.106;2023-06-26T02:33:18;6.97;;;3.95;;
78799;SDS011;68148;55.328;86.106;2023-06-26T02:35:44;9.77;;;4.15;;
78799;SDS011;68148;55.328;86.106;2023-06-26T02:38:10;9.98;;;3.08;;
78799;SDS011;68148;55.328;86.106;2023-06-26T02:40:35;7.20;;;3.67;;
78799;SDS011;68148;55.328;86.106;2023-06-26T02:43:01;12.38;;;4.18;;
78799;SDS011;68148;55.328;86.106;2023-06-26T02:45:27;6.10;;;3.72;;
78799;SDS011;68148;55.328;86.106;2023-06-26T02:47:53;9.50;;;3.97;;
78799;SDS011;68148;55.328;86.106;2023-06-26T02:50:19;9.00;;;3.72;;
78799;SDS011;68148;55.328;86.106;2023-06-26T02:52:44;6.13;;;3.72;;
78799;SDS011;68148;55.328;86.106;2023-06-26T02:55:10;8.75;;;3.30;;
78799;SDS011;68148;55.328;86.106;2023-06-26T02:57:43;5.13;;;3.50;;
78799;SDS011;68148;55.328;86.106;2023-06-26T03:00:09;5.07;;;3.20;;
78799;SDS011;68148;55.328;86.106;2023-06-26T03:02:38;10.35;;;4.63;;
78799;SDS011;68148;55.328;86.106;2023-06-26T03:05:06;11.00;;;3.35;;
78799;SDS011;68148;55.328;86.106;2023-06-26T03:07:31;8.13;;;3.35;;
78799;SDS011;68148;55.328;86.106;2023-06-26T03:09:57;6.15;;;3.60;;
78799;SDS011;68148;55.328;86.106;2023-06-26T03:12:25;8.05;;;3.13;;
78799;SDS011;68148;55.328;86.106;2023-06-26T03:14:51;10.13;;;3.17;;
78799;SDS011;68148;55.328;86.106;2023-06-26T03:17:17;10.35;;;3.30;;
78799;SDS011;68148;55.328;86.106;2023-06-26T03:19:42;6.13;;;3.45;;
78799;SDS011;68148;55.328;86.106;2023-06-26T03:22:08;10.00;;;3.38;;
78799;SDS011;68148;55.328;86.106;2023-06-26T03:24:34;14.15;;;3.75;;
78799;SDS011;68148;55.328;86.106;2023-06-26T03:27:00;11.52;;;3.53;;
78799;SDS011;68148;55.328;86.106;2023-06-26T03:29:26;7.20;;;3.38;;
78799;SDS011;68148;55.328;86.106;2023-06-26T03:31:51;8.52;;;3.95;;
78799;SDS011;68148;55.328;86.106;2023-06-26T03:34:17;7.30;;;3.33;;
78799;SDS011;68148;55.328;86.106;2023-06-26T03:36:44;9.30;;;4.80;;
78799;SDS011;68148;55.328;86.106;2023-06-26T03:39:09;7.80;;;3.67;;
78799;SDS011;68148;55.328;86.106;2023-06-26T03:41:36;8.88;;;3.40;;
78799;SDS011;68148;55.328;86.106;2023-06-26T03:44:02;7.25;;;4.03;;
78799;SDS011;68148;55.328;86.106;2023-06-26T03:46:28;8.38;;;3.47;;
78799;SDS011;68148;55.328;86.106;2023-06-26T03:48:54;9.55;;;3.55;;
78799;SDS011;68148;55.328;86.106;2023-06-26T03:51:19;8.88;;;3.70;;
78799;SDS011;68148;55.328;86.106;2023-06-26T03:53:45;8.32;;;3.80;;
78799;SDS011;68148;55.328;86.106;2023-06-26T03:56:11;7.93;;;3.50;;
78799;SDS011;68148;55.328;86.106;2023-06-26T03:58:37;7.60;;;3.25;;
78799;SDS011;68148;55.328;86.106;2023-06-26T04:01:02;9.23;;;3.80;;
78799;SDS011;68148;55.328;86.106;2023-06-26T04:03:28;6.63;;;3.78;;
78799;SDS011;68148;55.328;86.106;2023-06-26T04:05:54;9.63;;;3.50;;
78799;SDS011;68148;55.328;86.106;2023-06-26T04:08:19;11.88;;;3.65;;
78799;SDS011;68148;55.328;86.106;2023-06-26T04:10:45;12.43;;;4.00;;
78799;SDS011;68148;55.328;86.106;2023-06-26T04:13:11;9.90;;;3.20;;
78799;SDS011;68148;55.328;86.106;2023-06-26T04:15:37;10.75;;;3.92;;
78799;SDS011;68148;55.328;86.106;2023-06-26T04:18:03;5.72;;;3.25;;
78799;SDS011;68148;55.328;86.106;2023-06-26T04:20:28;10.15;;;3.42;;
78799;SDS011;68148;55.328;86.106;2023-06-26T04:22:54;9.93;;;3.47;;
78799;SDS011;68148;55.328;86.106;2023-06-26T04:25:20;6.85;;;3.15;;
78799;SDS011;68148;55.328;86.106;2023-06-26T04:27:46;9.40;;;3.22;;
78799;SDS011;68148;55.328;86.106;2023-06-26T04:30:11;4.28;;;3.20;;
78799;SDS011;68148;55.328;86.106;2023-06-26T04:32:38;6.07;;;2.97;;
78799;SDS011;68148;55.328;86.106;2023-06-26T04:35:04;11.27;;;3.00;;
78799;SDS011;68148;55.328;86.106;2023-06-26T04:37:30;11.75;;;3.88;;
78799;SDS011;68148;55.328;86.106;2023-06-26T04:39:56;8.35;;;3.30;;
78799;SDS011;68148;55.328;86.106;2023-06-26T04:42:23;9.93;;;3.00;;
78799;SDS011;68148;55.328;86.106;2023-06-26T04:44:49;5.45;;;3.88;;
78799;SDS011;68148;55.328;86.106;2023-06-26T04:47:15;8.25;;;3.58;;
78799;SDS011;68148;55.328;86.106;2023-06-26T04:49:41;8.73;;;4.00;;
78799;SDS011;68148;55.328;86.106;2023-06-26T04:52:06;8.30;;;3.90;;
78799;SDS011;68148;55.328;86.106;2023-06-26T04:54:32;9.63;;;3.70;;
78799;SDS011;68148;55.328;86.106;2023-06-26T04:56:58;8.13;;;3.85;;
78799;SDS011;68148;55.328;86.106;2023-06-26T04:59:24;7.22;;;3.63;;
78799;SDS011;68148;55.328;86.106;2023-06-26T05:01:50;9.02;;;3.97;;
78799;SDS011;68148;55.328;86.106;2023-06-26T05:04:15;7.95;;;4.05;;
78799;SDS011;68148;55.328;86.106;2023-06-26T05:06:41;9.13;;;4.53;;
78799;SDS011;68148;55.328;86.106;2023-06-26T05:09:07;10.20;;;4.40;;
78799;SDS011;68148;55.328;86.106;2023-06-26T05:11:33;17.77;;;5.95;;
78799;SDS011;68148;55.328;86.106;2023-06-26T05:13:59;9.85;;;4.95;;
78799;SDS011;68148;55.328;86.106;2023-06-26T05:16:25;14.02;;;6.30;;
78799;SDS011;68148;55.328;86.106;2023-06-26T05:18:50;16.15;;;5.60;;
78799;SDS011;68148;55.328;86.106;2023-06-26T05:21:16;13.10;;;5.18;;
78799;SDS011;68148;55.328;86.106;2023-06-26T05:23:42;17.23;;;5.95;;
78799;SDS011;68148;55.328;86.106;2023-06-26T05:26:10;10.90;;;4.85;;
78799;SDS011;68148;55.328;86.106;2023-06-26T05:28:36;12.23;;;5.00;;
78799;SDS011;68148;55.328;86.106;2023-06-26T05:31:03;8.90;;;3.45;;
78799;SDS011;68148;55.328;86.106;2023-06-26T05:33:29;6.43;;;2.92;;
78799;SDS011;68148;55.328;86.106;2023-06-26T05:35:55;6.78;;;3.35;;
78799;SDS011;68148;55.328;86.106;2023-06-26T05:38:21;8.57;;;3.72;;
78799;SDS011;68148;55.328;86.106;2023-06-26T05:40:47;9.55;;;3.88;;
78799;SDS011;68148;55.328;86.106;2023-06-26T05:43:13;9.18;;;4.22;;
78799;SDS011;68148;55.328;86.106;2023-06-26T05:45:40;12.80;;;3.85;;
78799;SDS011;68148;55.328;86.106;2023-06-26T05:48:06;10.23;;;3.35;;
78799;SDS011;68148;55.328;86.106;2023-06-26T05:50:32;5.53;;;3.10;;
78799;SDS011;68148;55.328;86.106;2023-06-26T05:52:58;9.90;;;2.92;;
78799;SDS011;68148;55.328;86.106;2023-06-26T05:55:24;8.57;;;3.40;;
78799;SDS011;68148;55.328;86.106;2023-06-26T05:57:50;6.32;;;3.58;;
78799;SDS011;68148;55.328;86.106;2023-06-26T06:00:16;6.25;;;2.92;;
78799;SDS011;68148;55.328;86.106;2023-06-26T06:02:43;10.25;;;3.28;;
78799;SDS011;68148;55.328;86.106;2023-06-26T06:05:09;8.20;;;3.50;;
78799;SDS011;68148;55.328;86.106;2023-06-26T06:07:35;8.68;;;3.53;;
78799;SDS011;68148;55.328;86.106;2023-06-26T06:10:02;8.13;;;3.47;;
78799;SDS011;68148;55.328;86.106;2023-06-26T06:12:29;5.60;;;3.88;;
78799;SDS011;68148;55.328;86.106;2023-06-26T06:14:56;5.63;;;3.25;;
78799;SDS011;68148;55.328;86.106;2023-06-26T06:17:22;7.20;;;4.07;;
78799;SDS011;68148;55.328;86.106;2023-06-26T06:19:48;5.40;;;3.47;;
78799;SDS011;68148;55.328;86.106;2023-06-26T06:22:14;12.25;;;4.10;;
78799;SDS011;68148;55.328;86.106;2023-06-26T06:24:40;11.38;;;4.15;;
78799;SDS011;68148;55.328;86.106;2023-06-26T06:27:06;8.38;;;3.92;;
78799;SDS011;68148;55.328;86.106;2023-06-26T06:29:32;8.02;;;2.95;;
78799;SDS011;68148;55.328;86.106;2023-06-26T06:31:58;7.47;;;2.92;;
78799;SDS011;68148;55.328;86.106;2023-06-26T06:34:24;7.38;;;2.45;;
78799;SDS011;68148;55.328;86.106;2023-06-26T06:36:49;5.13;;;2.85;;
78799;SDS011;68148;55.328;86.106;2023-06-26T06:39:16;5.05;;;2.05;;
78799;SDS011;68148;55.328;86.106;2023-06-26T06:41:41;7.32;;;2.97;;
78799;SDS011;68148;55.328;86.106;2023-06-26T06:44:08;5.85;;;2.83;;
78799;SDS011;68148;55.328;86.106;2023-06-26T06:46:33;4.85;;;2.72;;
78799;SDS011;68148;55.328;86.106;2023-06-26T06:49:00;5.35;;;3.38;;
78799;SDS011;68148;55.328;86.106;2023-06-26T06:51:25;5.82;;;2.85;;
78799;SDS011;68148;55.328;86.106;2023-06-26T06:53:51;9.15;;;2.55;;
78799;SDS011;68148;55.328;86.106;2023-06-26T06:56:17;6.38;;;2.42;;
78799;SDS011;68148;55.328;86.106;2023-06-26T06:58:44;4.40;;;2.67;;
78799;SDS011;68148;55.328;86.106;2023-06-26T07:01:09;6.43;;;2.55;;
78799;SDS011;68148;55.328;86.106;2023-06-26T07:03:35;4.40;;;2.10;;
78799;SDS011;68148;55.328;86.106;2023-06-26T07:06:01;5.45;;;2.38;;
78799;SDS011;68148;55.328;86.106;2023-06-26T07:08:27;9.18;;;2.92;;
78799;SDS011;68148;55.328;86.106;2023-06-26T07:10:53;5.03;;;1.40;;
78799;SDS011;68148;55.328;86.106;2023-06-26T07:13:19;4.63;;;2.20;;
78799;SDS011;68148;55.328;86.106;2023-06-26T07:15:45;5.55;;;2.15;;
78799;SDS011;68148;55.328;86.106;2023-06-26T07:18:11;6.32;;;2.30;;
78799;SDS011;68148;55.328;86.106;2023-06-26T07:20:37;6.55;;;2.03;;
78799;SDS011;68148;55.328;86.106;2023-06-26T07:23:02;3.17;;;2.08;;
78799;SDS011;68148;55.328;86.106;2023-06-26T07:25:28;5.57;;;2.10;;
78799;SDS011;68148;55.328;86.106;2023-06-26T07:27:54;4.90;;;1.95;;
78799;SDS011;68148;55.328;86.106;2023-06-26T07:30:20;2.90;;;1.40;;
78799;SDS011;68148;55.328;86.106;2023-06-26T07:32:46;4.53;;;1.70;;
78799;SDS011;68148;55.328;86.106;2023-06-26T07:35:11;11.60;;;2.13;;
78799;SDS011;68148;55.328;86.106;2023-06-26T07:37:37;4.25;;;2.40;;
78799;SDS011;68148;55.328;86.106;2023-06-26T07:40:03;3.67;;;1.60;;
78799;SDS011;68148;55.328;86.106;2023-06-26T07:42:30;4.00;;;1.90;;
78799;SDS011;68148;55.328;86.106;2023-06-26T07:44:55;3.38;;;2.00;;
78799;SDS011;68148;55.328;86.106;2023-06-26T07:47:21;7.78;;;2.78;;
78799;SDS011;68148;55.328;86.106;2023-06-26T07:49:47;11.48;;;2.17;;
78799;SDS011;68148;55.328;86.106;2023-06-26T07:52:14;4.53;;;1.10;;
78799;SDS011;68148;55.328;86.106;2023-06-26T07:54:40;4.85;;;1.92;;
78799;SDS011;68148;55.328;86.106;2023-06-26T07:57:06;4.55;;;2.13;;
78799;SDS011;68148;55.328;86.106;2023-06-26T07:59:32;4.28;;;1.40;;
78799;SDS011;68148;55.328;86.106;2023-06-26T08:01:58;4.13;;;1.40;;
78799;SDS011;68148;55.328;86.106;2023-06-26T08:04:25;3.50;;;1.85;;
78799;SDS011;68148;55.328;86.106;2023-06-26T08:09:22;6.72;;;1.35;;
78799;SDS011;68148;55.328;86.106;2023-06-26T08:11:49;5.43;;;1.50;;
78799;SDS011;68148;55.328;86.106;2023-06-26T08:14:15;11.65;;;2.03;;
78799;SDS011;68148;55.328;86.106;2023-06-26T08:16:42;3.33;;;1.50;;
78799;SDS011;68148;55.328;86.106;2023-06-26T08:19:09;7.03;;;1.60;;
78799;SDS011;68148;55.328;86.106;2023-06-26T08:21:35;5.85;;;2.50;;
78799;SDS011;68148;55.328;86.106;2023-06-26T08:24:01;3.60;;;1.95;;
78799;SDS011;68148;55.328;86.106;2023-06-26T08:26:27;3.08;;;1.20;;
78799;SDS011;68148;55.328;86.106;2023-06-26T08:28:53;3.15;;;1.20;;
78799;SDS011;68148;55.328;86.106;2023-06-26T08:31:19;4.20;;;1.20;;
78799;SDS011;68148;55.328;86.106;2023-06-26T08:33:45;3.03;;;1.23;;
78799;SDS011;68148;55.328;86.106;2023-06-26T08:36:11;10.40;;;1.80;;
78799;SDS011;68148;55.328;86.106;2023-06-26T08:38:37;3.10;;;1.23;;
78799;SDS011;68148;55.328;86.106;2023-06-26T08:41:03;3.42;;;1.55;;
78799;SDS011;68148;55.328;86.106;2023-06-26T08:43:30;2.15;;;1.08;;
78799;SDS011;68148;55.328;86.106;2023-06-26T08:45:56;3.45;;;1.27;;
78799;SDS011;68148;55.328;86.106;2023-06-26T08:48:23;7.32;;;1.70;;
78799;SDS011;68148;55.328;86.106;2023-06-26T08:50:49;5.95;;;1.23;;
78799;SDS011;68148;55.328;86.106;2023-06-26T08:56:17;7.07;;;1.30;;
78799;SDS011;68148;55.328;86.106;2023-06-26T08:58:45;2.63;;;1.20;;
78799;SDS011;68148;55.328;86.106;2023-06-26T09:01:11;5.57;;;1.50;;
78799;SDS011;68148;55.328;86.106;2023-06-26T09:03:37;5.80;;;1.90;;
78799;SDS011;68148;55.328;86.106;2023-06-26T09:06:03;3.58;;;1.70;;
78799;SDS011;68148;55.328;86.106;2023-06-26T09:08:32;4.28;;;1.35;;
78799;SDS011;68148;55.328;86.106;2023-06-26T09:10:57;3.28;;;1.63;;
78799;SDS011;68148;55.328;86.106;2023-06-26T09:13:23;2.50;;;1.33;;
78799;SDS011;68148;55.328;86.106;2023-06-26T09:15:49;2.45;;;1.38;;
78799;SDS011;68148;55.328;86.106;2023-06-26T09:18:20;3.38;;;1.90;;
78799;SDS011;68148;55.328;86.106;2023-06-26T09:20:46;2.50;;;1.17;;
78799;SDS011;68148;55.328;86.106;2023-06-26T09:23:12;3.30;;;1.40;;
78799;SDS011;68148;55.328;86.106;2023-06-26T09:25:39;8.55;;;1.75;;
78799;SDS011;68148;55.328;86.106;2023-06-26T09:28:05;5.00;;;1.30;;
78799;SDS011;68148;55.328;86.106;2023-06-26T09:30:33;2.60;;;0.93;;
78799;SDS011;68148;55.328;86.106;2023-06-26T09:33:18;4.38;;;1.17;;
78799;SDS011;68148;55.328;86.106;2023-06-26T09:35:45;2.03;;;1.10;;
78799;SDS011;68148;55.328;86.106;2023-06-26T09:38:13;2.22;;;1.30;;
78799;SDS011;68148;55.328;86.106;2023-06-26T09:40:39;2.65;;;1.33;;
78799;SDS011;68148;55.328;86.106;2023-06-26T09:43:06;3.30;;;1.20;;
78799;SDS011;68148;55.328;86.106;2023-06-26T09:45:34;2.80;;;1.00;;
78799;SDS011;68148;55.328;86.106;2023-06-26T09:48:01;5.03;;;1.25;;
78799;SDS011;68148;55.328;86.106;2023-06-26T09:50:27;4.45;;;1.10;;
78799;SDS011;68148;55.328;86.106;2023-06-26T09:52:53;2.42;;;1.20;;
78799;SDS011;68148;55.328;86.106;2023-06-26T09:55:19;1.60;;;1.17;;
78799;SDS011;68148;55.328;86.106;2023-06-26T09:57:46;3.28;;;1.20;;
78799;SDS011;68148;55.328;86.106;2023-06-26T10:00:13;4.38;;;1.08;;
78799;SDS011;68148;55.328;86.106;2023-06-26T10:02:39;3.15;;;1.20;;
78799;SDS011;68148;55.328;86.106;2023-06-26T10:05:05;5.03;;;1.15;;
78799;SDS011;68148;55.328;86.106;2023-06-26T10:07:31;3.38;;;1.48;;
78799;SDS011;68148;55.328;86.106;2023-06-26T10:09:58;6.25;;;1.40;;
78799;SDS011;68148;55.328;86.106;2023-06-26T10:12:29;3.20;;;1.05;;
78799;SDS011;68148;55.328;86.106;2023-06-26T10:14:56;5.15;;;1.10;;
78799;SDS011;68148;55.328;86.106;2023-06-26T10:17:24;2.95;;;1.30;;
78799;SDS011;68148;55.328;86.106;2023-06-26T10:19:52;2.00;;;1.00;;
78799;SDS011;68148;55.328;86.106;2023-06-26T10:22:20;9.07;;;1.25;;
78799;SDS011;68148;55.328;86.106;2023-06-26T10:24:47;10.98;;;5.43;;
78799;SDS011;68148;55.328;86.106;2023-06-26T10:27:16;16.52;;;8.27;;
78799;SDS011;68148;55.328;86.106;2023-06-26T10:29:52;19.15;;;7.90;;
78799;SDS011;68148;55.328;86.106;2023-06-26T10:32:21;22.23;;;7.03;;
78799;SDS011;68148;55.328;86.106;2023-06-26T10:34:51;22.55;;;4.90;;
78799;SDS011;68148;55.328;86.106;2023-06-26T10:37:18;7.95;;;2.80;;
78799;SDS011;68148;55.328;86.106;2023-06-26T10:39:48;2.50;;;1.52;;
78799;SDS011;68148;55.328;86.106;2023-06-26T10:42:14;3.40;;;2.25;;
78799;SDS011;68148;55.328;86.106;2023-06-26T10:44:45;4.75;;;2.17;;
78799;SDS011;68148;55.328;86.106;2023-06-26T10:47:28;6.40;;;2.80;;
78799;SDS011;68148;55.328;86.106;2023-06-26T10:52:42;17.33;;;5.75;;
78799;SDS011;68148;55.328;86.106;2023-06-26T10:55:08;30.52;;;14.60;;
78799;SDS011;68148;55.328;86.106;2023-06-26T10:57:35;32.10;;;15.95;;
78799;SDS011;68148;55.328;86.106;2023-06-26T11:00:11;52.97;;;24.60;;
78799;SDS011;68148;55.328;86.106;2023-06-26T11:02:48;43.83;;;18.83;;
78799;SDS011;68148;55.328;86.106;2023-06-26T11:05:23;44.75;;;15.07;;
78799;SDS011;68148;55.328;86.106;2023-06-26T11:08:06;79.43;;;32.63;;
78799;SDS011;68148;55.328;86.106;2023-06-26T11:10:52;43.65;;;18.08;;
78799;SDS011;68148;55.328;86.106;2023-06-26T11:13:19;24.23;;;10.77;;
78799;SDS011;68148;55.328;86.106;2023-06-26T11:15:46;25.65;;;11.07;;
78799;SDS011;68148;55.328;86.106;2023-06-26T11:18:13;36.53;;;16.88;;
78799;SDS011;68148;55.328;86.106;2023-06-26T11:20:39;36.10;;;16.67;;
78799;SDS011;68148;55.328;86.106;2023-06-26T11:23:05;28.00;;;13.27;;
78799;SDS011;68148;55.328;86.106;2023-06-26T11:25:37;14.73;;;7.55;;
78799;SDS011;68148;55.328;86.106;2023-06-26T11:28:03;16.63;;;6.57;;
78799;SDS011;68148;55.328;86.106;2023-06-26T11:30:31;13.20;;;6.38;;
78799;SDS011;68148;55.328;86.106;2023-06-26T11:33:04;19.90;;;7.20;;
78799;SDS011;68148;55.328;86.106;2023-06-26T11:35:34;21.27;;;9.05;;
78799;SDS011;68148;55.328;86.106;2023-06-26T11:38:00;22.42;;;11.65;;
78799;SDS011;68148;55.328;86.106;2023-06-26T11:40:27;17.25;;;7.05;;
78799;SDS011;68148;55.328;86.106;2023-06-26T11:42:53;16.65;;;6.47;;
78799;SDS011;68148;55.328;86.106;2023-06-26T11:45:19;17.92;;;7.93;;
78799;SDS011;68148;55.328;86.106;2023-06-26T11:47:45;21.45;;;11.13;;
78799;SDS011;68148;55.328;86.106;2023-06-26T11:50:17;31.30;;;15.93;;
78799;SDS011;68148;55.328;86.106;2023-06-26T11:52:44;25.25;;;13.32;;
78799;SDS011;68148;55.328;86.106;2023-06-26T11:55:10;22.42;;;12.27;;
78799;SDS011;68148;55.328;86.106;2023-06-26T11:57:36;20.63;;;9.27;;
78799;SDS011;68148;55.328;86.106;2023-06-26T12:00:12;18.40;;;9.25;;
78799;SDS011;68148;55.328;86.106;2023-06-26T12:02:39;22.30;;;9.05;;
78799;SDS011;68148;55.328;86.106;2023-06-26T12:05:05;20.00;;;10.48;;
78799;SDS011;68148;55.328;86.106;2023-06-26T12:07:32;37.33;;;20.98;;
78799;SDS011;68148;55.328;86.106;2023-06-26T12:09:58;34.65;;;17.70;;
78799;SDS011;68148;55.328;86.106;2023-06-26T12:12:24;37.88;;;18.40;;
78799;SDS011;68148;55.328;86.106;2023-06-26T12:14:51;43.15;;;20.60;;
78799;SDS011;68148;55.328;86.106;2023-06-26T12:19:48;44.03;;;23.65;;
78799;SDS011;68148;55.328;86.106;2023-06-26T12:22:13;34.88;;;19.75;;
78799;SDS011;68148;55.328;86.106;2023-06-26T12:24:39;39.58;;;21.23;;
78799;SDS011;68148;55.328;86.106;2023-06-26T12:27:09;36.00;;;18.50;;
78799;SDS011;68148;55.328;86.106;2023-06-26T12:29:36;31.65;;;18.65;;
78799;SDS011;68148;55.328;86.106;2023-06-26T12:32:02;27.75;;;14.27;;
78799;SDS011;68148;55.328;86.106;2023-06-26T12:34:30;12.00;;;4.50;;
78799;SDS011;68148;55.328;86.106;2023-06-26T12:37:10;13.23;;;4.70;;
78799;SDS011;68148;55.328;86.106;2023-06-26T12:39:47;17.42;;;5.07;;
78799;SDS011;68148;55.328;86.106;2023-06-26T12:42:20;15.77;;;7.65;;
78799;SDS011;68148;55.328;86.106;2023-06-26T12:44:48;28.13;;;14.25;;
78799;SDS011;68148;55.328;86.106;2023-06-26T12:47:14;15.50;;;7.60;;
78799;SDS011;68148;55.328;86.106;2023-06-26T12:49:42;15.25;;;5.72;;
78799;SDS011;68148;55.328;86.106;2023-06-26T12:52:10;9.57;;;4.40;;
78799;SDS011;68148;55.328;86.106;2023-06-26T12:54:38;10.57;;;5.22;;
78799;SDS011;68148;55.328;86.106;2023-06-26T12:57:05;12.93;;;4.35;;
78799;SDS011;68148;55.328;86.106;2023-06-26T12:59:32;11.52;;;4.43;;
78799;SDS011;68148;55.328;86.106;2023-06-26T13:02:06;7.63;;;3.40;;
78799;SDS011;68148;55.328;86.106;2023-06-26T13:04:51;8.88;;;3.00;;
78799;SDS011;68148;55.328;86.106;2023-06-26T13:07:17;8.10;;;2.38;;
78799;SDS011;68148;55.328;86.106;2023-06-26T13:09:43;8.00;;;2.50;;
78799;SDS011;68148;55.328;86.106;2023-06-26T13:12:09;9.32;;;2.67;;
78799;SDS011;68148;55.328;86.106;2023-06-26T13:17:03;9.45;;;2.40;;
78799;SDS011;68148;55.328;86.106;2023-06-26T13:19:29;8.90;;;2.67;;
78799;SDS011;68148;55.328;86.106;2023-06-26T13:21:55;14.38;;;2.75;;
78799;SDS011;68148;55.328;86.106;2023-06-26T13:24:21;6.55;;;2.42;;
78799;SDS011;68148;55.328;86.106;2023-06-26T13:26:47;8.30;;;2.65;;
78799;SDS011;68148;55.328;86.106;2023-06-26T13:29:13;7.07;;;2.22;;
78799;SDS011;68148;55.328;86.106;2023-06-26T13:32:00;8.43;;;2.38;;
78799;SDS011;68148;55.328;86.106;2023-06-26T13:34:31;5.63;;;2.72;;
78799;SDS011;68148;55.328;86.106;2023-06-26T13:36:57;4.65;;;2.42;;
78799;SDS011;68148;55.328;86.106;2023-06-26T13:39:23;5.97;;;2.40;;
78799;SDS011;68148;55.328;86.106;2023-06-26T13:41:49;6.38;;;2.88;;
78799;SDS011;68148;55.328;86.106;2023-06-26T13:44:18;10.43;;;2.30;;
78799;SDS011;68148;55.328;86.106;2023-06-26T13:46:44;7.03;;;1.92;;
78799;SDS011;68148;55.328;86.106;2023-06-26T13:49:09;4.60;;;2.80;;
78799;SDS011;68148;55.328;86.106;2023-06-26T13:51:36;12.80;;;2.53;;
78799;SDS011;68148;55.328;86.106;2023-06-26T13:54:01;8.52;;;2.42;;
78799;SDS011;68148;55.328;86.106;2023-06-26T13:56:32;7.90;;;2.40;;
78799;SDS011;68148;55.328;86.106;2023-06-26T13:58:58;7.28;;;2.40;;
78799;SDS011;68148;55.328;86.106;2023-06-26T14:01:24;6.43;;;2.45;;
78799;SDS011;68148;55.328;86.106;2023-06-26T14:03:50;11.90;;;2.95;;
78799;SDS011;68148;55.328;86.106;2023-06-26T14:06:16;5.63;;;2.80;;
78799;SDS011;68148;55.328;86.106;2023-06-26T14:08:42;5.97;;;2.65;;
78799;SDS011;68148;55.328;86.106;2023-06-26T14:11:07;14.27;;;2.83;;
78799;SDS011;68148;55.328;86.106;2023-06-26T14:13:36;7.68;;;2.45;;
78799;SDS011;68148;55.328;86.106;2023-06-26T14:16:01;7.93;;;2.58;;
78799;SDS011;68148;55.328;86.106;2023-06-26T14:18:27;7.50;;;2.55;;
78799;SDS011;68148;55.328;86.106;2023-06-26T14:20:53;8.35;;;2.95;;
78799;SDS011;68148;55.328;86.106;2023-06-26T14:23:19;10.18;;;2.47;;
78799;SDS011;68148;55.328;86.106;2023-06-26T14:25:45;5.75;;;2.60;;
78799;SDS011;68148;55.328;86.106;2023-06-26T14:28:11;11.07;;;2.33;;
78799;SDS011;68148;55.328;86.106;2023-06-26T14:30:37;14.93;;;2.40;;
78799;SDS011;68148;55.328;86.106;2023-06-26T14:33:03;5.22;;;2.40;;
78799;SDS011;68148;55.328;86.106;2023-06-26T14:35:28;8.52;;;2.50;;
78799;SDS011;68148;55.328;86.106;2023-06-26T14:37:54;19.27;;;2.15;;
78799;SDS011;68148;55.328;86.106;2023-06-26T14:40:20;5.07;;;2.08;;
78799;SDS011;68148;55.328;86.106;2023-06-26T14:42:46;7.18;;;2.60;;
78799;SDS011;68148;55.328;86.106;2023-06-26T14:45:12;7.45;;;2.60;;
78799;SDS011;68148;55.328;86.106;2023-06-26T14:47:37;5.40;;;2.50;;
78799;SDS011;68148;55.328;86.106;2023-06-26T14:50:03;11.10;;;3.03;;